Метар онлайн

Метар онлайн

Главная страница

Аэропорты :

широта: 53-23-36N, долгота: 058-45-24E, высота над уровнем моря: 436 м

Текущие метеонаблюдения

Эта сводка был подготовлена 21 минут назад, в 06:30 UTC

Ветер 8 Узел от южный

Температура -4°C

Влажность 86%

Давление 1022 hPa

Видимость 10 км и более

METAR: USCM 120630Z 17004MPS 9999 NSC M04/M06 Q1022 R18/950542 NOSIG RMK QFE728

Время: 11:51 (06:51 UTC)

Прогноз

Эта сводка был подготовлена 1 час и 51 минут назад, в 05:00 UTC

Прогноз действительный с 12-го 06 UTC до 12-го 15 UTC

Ветер 6 Узел от южный-юго-западный с порывами до 16 Узел

Видимость 10 км и более

Отдельные облака на высоте 3000 фута, Кучево-дождевые.

временами
С 12-го 06 UTC до 12-го 15 UTC

Ветер 10 Узел от юго-западный с порывами до 19 Узел

Рассеянная облачность на высоте 1500 фута, Кучево-дождевые.

TAF: USCM 120500Z 1206/1215 21003G08MPS 9999 SCT030CB TEMPO 1206/1215 23005G10MPS BKN015CB

Метеонаблюдения и прогнозы для более 4000 аэропортов (сводки METAR и TAF).

Имеющиеся станции представлены на карте желтыми и красными точками.

Чтобы увидеть название станции, наведите на нее мышь.

Затем щелкните, чтобы увидеть метеонаблюдения и метеопрогнозы.

Управление картой: чтобы увеличить масштаб, щелкните зеленые кнопки с черным крестиком; чтобы уменьшить масштаб, щелкните зеленую кнопку с тире; для просмотра соседних карт щелкайте зеленые стрелки.

Analyse audience

Источник: ru.allmetsat.com


Добавить комментарий